createdAt,value
2023-03-16T00:01:29.566Z,2.90
2023-03-16T00:04:00.999Z,2.70
2023-03-16T00:06:31.832Z,3.40
2023-03-16T00:09:02.612Z,2.90
2023-03-16T00:11:33.392Z,3.10
2023-03-16T00:14:05.090Z,2.50
2023-03-16T00:16:36.634Z,3.00
2023-03-16T00:19:07.766Z,2.40
2023-03-16T00:21:38.715Z,2.40
2023-03-16T00:24:10.389Z,2.50
2023-03-16T00:26:42.441Z,2.00
2023-03-16T00:29:13.201Z,2.80
2023-03-16T00:31:45.075Z,2.30
2023-03-16T00:34:16.602Z,2.40
2023-03-16T00:36:47.538Z,2.60
2023-03-16T00:39:18.885Z,2.30
2023-03-16T00:41:49.824Z,2.30
2023-03-16T00:44:21.744Z,2.30
2023-03-16T00:46:53.001Z,2.00
2023-03-16T00:49:23.995Z,2.80
2023-03-16T00:51:54.980Z,2.90
2023-03-16T00:54:27.204Z,1.90
2023-03-16T00:56:58.040Z,1.60
2023-03-16T00:59:29.263Z,2.10
2023-03-16T01:02:00.638Z,1.70
2023-03-16T01:04:32.618Z,2.10
2023-03-16T01:07:03.336Z,2.10
2023-03-16T01:09:37.034Z,2.40
2023-03-16T01:12:10.325Z,2.40
2023-03-16T01:14:41.908Z,2.20
2023-03-16T01:17:13.991Z,2.40
2023-03-16T01:19:45.720Z,2.90
2023-03-16T01:22:17.166Z,2.20
2023-03-16T01:24:48.345Z,2.00
2023-03-16T01:27:19.195Z,2.10
2023-03-16T01:29:50.034Z,2.70
2023-03-16T01:32:20.873Z,2.20
2023-03-16T01:34:51.584Z,1.70
2023-03-16T01:37:22.742Z,2.30
2023-03-16T01:39:53.988Z,2.80
2023-03-16T01:42:24.734Z,1.70
2023-03-16T01:44:57.749Z,2.00
2023-03-16T01:47:28.800Z,2.00
2023-03-16T01:50:00.275Z,1.90
2023-03-16T01:52:34.642Z,2.40
2023-03-16T01:55:09.075Z,1.80
2023-03-16T01:57:44.717Z,2.10
2023-03-16T02:00:19.926Z,1.50
2023-03-16T02:02:56.928Z,1.90
2023-03-16T02:05:34.201Z,2.60
2023-03-16T02:08:06.950Z,2.20
2023-03-16T02:10:38.661Z,2.10
2023-03-16T02:13:09.617Z,1.80
2023-03-16T02:15:40.704Z,2.10
2023-03-16T02:18:12.431Z,1.90
2023-03-16T02:20:49.736Z,1.90
2023-03-16T02:23:24.536Z,2.10
2023-03-16T02:26:01.741Z,2.00
2023-03-16T02:28:39.236Z,2.50
2023-03-16T02:31:10.079Z,1.60
2023-03-16T02:33:42.065Z,2.00
2023-03-16T02:36:13.911Z,2.40
2023-03-16T02:38:44.852Z,2.50
2023-03-16T02:41:18.633Z,2.30
2023-03-16T02:43:55.615Z,1.70
2023-03-16T02:46:30.170Z,2.00
2023-03-16T02:49:06.605Z,1.70
2023-03-16T02:51:37.750Z,2.00
2023-03-16T02:54:08.595Z,2.90
2023-03-16T02:56:39.429Z,2.20
2023-03-16T02:59:10.293Z,2.10
2023-03-16T03:01:41.111Z,2.10
2023-03-16T03:04:12.026Z,2.10
2023-03-16T03:06:42.997Z,1.90
2023-03-16T03:09:13.947Z,3.00
2023-03-16T03:11:44.884Z,2.20
2023-03-16T03:14:16.933Z,1.90
2023-03-16T03:16:48.036Z,2.10
2023-03-16T03:19:18.955Z,3.00
2023-03-16T03:21:49.682Z,2.40
2023-03-16T03:24:20.613Z,1.70
2023-03-16T03:26:53.314Z,2.10
2023-03-16T03:29:24.150Z,2.30
2023-03-16T03:31:55.147Z,2.10
2023-03-16T03:34:26.851Z,2.20
2023-03-16T03:36:58.298Z,2.00
2023-03-16T03:39:29.262Z,1.70
2023-03-16T03:42:00.119Z,2.10
2023-03-16T03:44:34.719Z,2.10
2023-03-16T03:47:05.951Z,2.50
2023-03-16T03:49:36.699Z,2.00
2023-03-16T03:52:08.032Z,2.00
2023-03-16T03:54:38.977Z,1.90
2023-03-16T03:57:09.795Z,2.30
2023-03-16T03:59:43.820Z,2.10
2023-03-16T04:02:15.549Z,2.20
2023-03-16T04:04:46.913Z,3.30
2023-03-16T04:07:17.697Z,2.80
2023-03-16T04:09:48.308Z,2.40
2023-03-16T04:12:19.089Z,2.50
2023-03-16T04:14:49.895Z,2.00
2023-03-16T04:17:20.758Z,2.30
2023-03-16T04:19:52.113Z,2.00
2023-03-16T04:22:23.530Z,1.70
2023-03-16T04:24:54.473Z,1.90
2023-03-16T04:27:25.310Z,1.70
2023-03-16T04:29:59.597Z,1.70
2023-03-16T04:32:30.306Z,1.60
2023-03-16T04:35:02.002Z,1.80
2023-03-16T04:37:32.796Z,1.60
2023-03-16T04:40:12.128Z,2.40
2023-03-16T04:42:42.829Z,1.60
2023-03-16T04:45:15.283Z,1.80
2023-03-16T04:47:46.199Z,2.00
2023-03-16T04:50:17.622Z,5.00
2023-03-16T04:52:48.272Z,2.30
2023-03-16T04:55:19.363Z,3.20
2023-03-16T04:57:50.212Z,4.40
2023-03-16T05:00:23.560Z,2.30
2023-03-16T05:02:54.496Z,2.40
2023-03-16T05:05:25.771Z,1.70
2023-03-16T05:07:56.839Z,2.90
2023-03-16T05:10:28.354Z,3.10
2023-03-16T05:12:59.173Z,3.10
2023-03-16T05:15:30.651Z,4.20
2023-03-16T05:18:01.701Z,4.30
2023-03-16T05:20:32.623Z,7.70
2023-03-16T05:23:03.477Z,11.60
2023-03-16T05:25:34.219Z,7.50
2023-03-16T05:28:05.512Z,11.90
2023-03-16T05:30:36.952Z,16.70
2023-03-16T05:33:08.020Z,61.00
2023-03-16T05:35:39.483Z,58.60
2023-03-16T05:38:10.466Z,54.20
2023-03-16T05:40:42.345Z,52.00
2023-03-16T05:43:13.515Z,43.50
2023-03-16T05:45:44.312Z,46.60
2023-03-16T05:48:16.153Z,44.60
2023-03-16T05:50:47.533Z,48.20
2023-03-16T05:53:18.386Z,45.10
2023-03-16T05:55:54.533Z,39.50
2023-03-16T05:58:25.486Z,35.50
2023-03-16T06:00:56.640Z,34.80
2023-03-16T06:03:27.358Z,38.10
2023-03-16T06:05:58.203Z,33.10
2023-03-16T06:08:29.144Z,26.20
2023-03-16T06:11:00.023Z,29.50
2023-03-16T06:13:31.200Z,27.80
2023-03-16T06:16:02.225Z,28.60
2023-03-16T06:18:33.105Z,30.10
2023-03-16T06:21:04.194Z,28.80
2023-03-16T06:23:35.120Z,26.60
2023-03-16T06:26:06.267Z,25.00
2023-03-16T06:28:37.219Z,26.40
2023-03-16T06:31:08.815Z,24.00
2023-03-16T06:33:39.594Z,22.10
2023-03-16T06:36:11.973Z,18.60
2023-03-16T06:38:43.220Z,20.60
2023-03-16T06:41:14.129Z,22.70
2023-03-16T06:43:45.101Z,16.10
2023-03-16T06:46:16.117Z,20.30
2023-03-16T06:48:47.811Z,18.30
2023-03-16T06:51:18.596Z,16.90
2023-03-16T06:53:49.499Z,16.20
2023-03-16T06:56:20.320Z,15.60
2023-03-16T06:58:52.093Z,17.00
2023-03-16T07:01:23.080Z,15.30
2023-03-16T07:03:54.763Z,13.80
2023-03-16T07:06:25.925Z,17.10
2023-03-16T07:08:56.891Z,14.10
2023-03-16T07:11:27.730Z,13.20
2023-03-16T07:13:58.721Z,13.80
2023-03-16T07:16:29.786Z,15.10
2023-03-16T07:19:00.754Z,13.20
2023-03-16T07:21:39.206Z,12.00
2023-03-16T07:24:11.726Z,10.90
2023-03-16T07:26:43.221Z,11.40
2023-03-16T07:29:14.443Z,10.00
2023-03-16T07:31:45.513Z,10.80
2023-03-16T07:34:16.349Z,11.20
2023-03-16T07:36:48.878Z,11.40
2023-03-16T07:39:19.810Z,11.00
2023-03-16T07:41:50.594Z,11.10
2023-03-16T07:44:21.790Z,9.10
2023-03-16T07:46:52.866Z,8.70
2023-03-16T07:49:24.070Z,8.80
2023-03-16T07:51:54.980Z,10.30
2023-03-16T07:54:25.890Z,8.00
2023-03-16T07:56:56.865Z,10.70
2023-03-16T07:59:27.631Z,8.40
2023-03-16T08:01:58.491Z,8.80
2023-03-16T08:04:29.396Z,10.00
2023-03-16T08:07:02.447Z,8.40
2023-03-16T08:09:35.991Z,8.00
2023-03-16T08:12:08.018Z,11.80
2023-03-16T08:14:39.216Z,8.80
2023-03-16T08:17:10.237Z,8.90
2023-03-16T08:19:43.154Z,9.70
2023-03-16T08:22:14.177Z,9.20
2023-03-16T08:24:45.073Z,8.40
2023-03-16T08:27:16.256Z,9.90
2023-03-16T08:29:48.534Z,7.20
2023-03-16T08:32:19.440Z,11.90
2023-03-16T08:34:50.363Z,9.70
2023-03-16T08:37:22.150Z,12.80
2023-03-16T08:39:53.404Z,8.90
2023-03-16T08:42:25.501Z,11.20
2023-03-16T08:44:56.342Z,10.60
2023-03-16T08:47:27.563Z,9.50
2023-03-16T08:49:58.947Z,11.10
2023-03-16T08:52:29.882Z,9.90
2023-03-16T08:55:03.857Z,12.10
2023-03-16T08:57:35.540Z,13.00
2023-03-16T09:00:13.226Z,12.50
2023-03-16T09:02:44.741Z,14.60
2023-03-16T09:05:18.414Z,13.10
2023-03-16T09:10:20.318Z,11.80
2023-03-16T09:12:52.221Z,12.70
2023-03-16T09:15:23.742Z,11.90
2023-03-16T09:17:54.650Z,12.00
2023-03-16T09:20:29.890Z,12.70
2023-03-16T09:23:01.431Z,11.90
2023-03-16T09:25:32.514Z,14.30
2023-03-16T09:28:03.168Z,14.40
2023-03-16T09:30:34.540Z,13.20
2023-03-16T09:33:06.299Z,12.60
2023-03-16T09:35:38.380Z,11.00
2023-03-16T09:38:09.085Z,11.30
2023-03-16T09:40:41.536Z,12.60
2023-03-16T09:43:29.481Z,13.40
2023-03-16T09:46:05.607Z,13.90
2023-03-16T09:48:39.834Z,15.40
2023-03-16T09:51:19.966Z,13.80
2023-03-16T09:53:55.392Z,13.00
2023-03-16T09:56:33.377Z,12.10
2023-03-16T09:59:10.634Z,12.30
2023-03-16T10:01:51.294Z,12.20
2023-03-16T10:04:36.923Z,13.10
2023-03-16T10:07:21.277Z,12.40
2023-03-16T10:09:58.730Z,11.20
2023-03-16T10:12:37.430Z,11.80
2023-03-16T10:15:14.663Z,10.70
2023-03-16T10:17:52.669Z,13.10
2023-03-16T10:20:27.422Z,9.90
2023-03-16T10:23:00.031Z,11.30
2023-03-16T10:25:39.688Z,11.10
2023-03-16T10:28:11.406Z,12.90
2023-03-16T10:30:42.993Z,12.80
2023-03-16T10:33:24.305Z,12.20
2023-03-16T10:36:02.701Z,10.70
2023-03-16T10:38:42.905Z,12.50
2023-03-16T10:41:25.519Z,10.80
2023-03-16T10:43:57.668Z,14.70
2023-03-16T10:46:29.993Z,12.10
2023-03-16T10:49:02.252Z,11.60
2023-03-16T10:51:35.152Z,9.50
2023-03-16T10:54:16.415Z,10.30
2023-03-16T10:56:50.663Z,11.40
2023-03-16T10:59:33.365Z,11.80
2023-03-16T11:02:15.303Z,7.60
2023-03-16T11:04:48.247Z,9.50
2023-03-16T11:07:25.564Z,10.60
2023-03-16T11:09:58.716Z,10.90
2023-03-16T11:12:31.362Z,10.40
2023-03-16T11:15:20.083Z,10.10
2023-03-16T11:17:57.581Z,9.80
2023-03-16T11:20:31.705Z,9.40
2023-03-16T11:23:03.244Z,8.70
2023-03-16T11:25:38.273Z,9.00
2023-03-16T11:28:17.933Z,10.00
2023-03-16T11:30:55.290Z,9.00
2023-03-16T11:33:31.181Z,8.70
2023-03-16T11:36:19.060Z,9.30
2023-03-16T11:39:01.472Z,9.30
2023-03-16T11:41:41.159Z,8.60
2023-03-16T11:44:23.062Z,10.40
2023-03-16T11:47:00.976Z,8.00
2023-03-16T11:49:49.352Z,8.40
2023-03-16T11:52:32.093Z,8.70
2023-03-16T11:55:14.016Z,8.70
2023-03-16T11:57:56.319Z,9.20
2023-03-16T12:00:38.740Z,7.30
2023-03-16T12:03:27.981Z,6.40
2023-03-16T12:06:16.830Z,9.10
2023-03-16T12:09:14.701Z,7.80
2023-03-16T12:11:53.448Z,8.40
2023-03-16T12:14:28.862Z,7.50
2023-03-16T12:17:05.838Z,8.40
2023-03-16T12:19:43.664Z,6.90
2023-03-16T12:22:22.816Z,6.50
2023-03-16T12:24:54.273Z,7.70
2023-03-16T12:27:31.638Z,6.60
2023-03-16T12:30:16.103Z,6.80
2023-03-16T12:32:55.639Z,5.50
2023-03-16T12:35:37.886Z,7.40
2023-03-16T12:38:35.372Z,6.60
2023-03-16T12:41:18.146Z,5.60
2023-03-16T12:44:11.362Z,5.80
2023-03-16T12:46:51.028Z,6.30
2023-03-16T12:49:24.762Z,7.10
2023-03-16T12:52:03.601Z,6.60
2023-03-16T12:54:34.747Z,6.10
2023-03-16T12:57:08.057Z,6.80
2023-03-16T12:59:44.106Z,6.30
2023-03-16T13:02:19.572Z,6.40
2023-03-16T13:04:59.124Z,6.10
2023-03-16T13:07:32.695Z,6.30
2023-03-16T13:10:10.196Z,6.50
2023-03-16T13:12:42.008Z,5.80
2023-03-16T13:15:29.759Z,5.50
2023-03-16T13:18:25.082Z,5.20
2023-03-16T13:21:01.921Z,5.70
2023-03-16T13:23:54.484Z,6.00
2023-03-16T13:26:38.520Z,5.60
2023-03-16T13:29:23.829Z,7.10
2023-03-16T13:31:56.419Z,5.40
2023-03-16T13:34:31.707Z,6.30
2023-03-16T13:37:04.290Z,5.00
2023-03-16T13:39:36.476Z,5.30
2023-03-16T13:42:18.692Z,5.10
2023-03-16T13:44:49.664Z,4.60
2023-03-16T13:47:21.747Z,4.50
2023-03-16T13:49:57.759Z,5.40
2023-03-16T13:52:31.489Z,4.90
2023-03-16T13:55:03.934Z,5.10
2023-03-16T13:57:39.883Z,5.00
2023-03-16T14:00:20.338Z,4.30
2023-03-16T14:02:55.778Z,5.20
2023-03-16T14:05:30.504Z,5.20
2023-03-16T14:08:02.348Z,5.20
2023-03-16T14:10:37.226Z,3.90
2023-03-16T14:13:24.231Z,6.30
2023-03-16T14:15:56.941Z,4.00
2023-03-16T14:18:33.764Z,4.70
2023-03-16T14:21:09.894Z,4.40
2023-03-16T14:23:45.219Z,4.60
2023-03-16T14:26:18.723Z,4.30
2023-03-16T14:29:03.213Z,4.50
2023-03-16T14:31:39.855Z,3.10
2023-03-16T14:34:23.987Z,4.40
2023-03-16T14:36:54.708Z,4.40
2023-03-16T14:39:30.270Z,4.30
2023-03-16T14:42:03.180Z,4.40
2023-03-16T14:44:37.006Z,3.70
2023-03-16T14:47:08.761Z,3.90
2023-03-16T14:49:43.246Z,4.10
2023-03-16T14:52:23.972Z,3.50
2023-03-16T14:54:55.380Z,4.40
2023-03-16T14:57:27.090Z,3.40
2023-03-16T14:59:58.034Z,2.90
2023-03-16T15:02:32.546Z,4.10
2023-03-16T15:05:05.500Z,3.50
2023-03-16T15:07:40.715Z,3.10
2023-03-16T15:10:23.547Z,3.00
2023-03-16T15:12:56.143Z,3.70
2023-03-16T15:15:28.668Z,3.30
2023-03-16T15:17:59.907Z,3.40
2023-03-16T15:20:35.993Z,3.40
2023-03-16T15:23:07.730Z,3.40
2023-03-16T15:25:40.734Z,2.90
2023-03-16T15:28:17.473Z,3.70
2023-03-16T15:30:50.298Z,2.80
2023-03-16T15:33:21.235Z,2.90
2023-03-16T15:35:55.835Z,2.80
2023-03-16T15:38:29.147Z,3.30
2023-03-16T15:41:00.700Z,3.10
2023-03-16T15:43:33.197Z,2.60
2023-03-16T15:46:05.328Z,3.10
2023-03-16T15:48:36.308Z,2.80
2023-03-16T15:51:13.313Z,2.70
2023-03-16T15:53:50.006Z,3.20
2023-03-16T15:56:30.100Z,2.90
2023-03-16T15:59:03.489Z,2.60
2023-03-16T16:01:39.336Z,4.00
2023-03-16T16:04:17.448Z,2.20
2023-03-16T16:06:49.441Z,2.80
2023-03-16T16:09:20.469Z,2.10
2023-03-16T16:11:51.678Z,3.40
2023-03-16T16:14:26.537Z,2.90
2023-03-16T16:16:57.504Z,2.50
2023-03-16T16:19:30.092Z,2.10
2023-03-16T16:22:00.880Z,2.80
2023-03-16T16:24:31.549Z,2.60
2023-03-16T16:27:02.287Z,3.40
2023-03-16T16:29:35.285Z,2.40
2023-03-16T16:32:18.284Z,3.00
2023-03-16T16:35:03.381Z,2.50
2023-03-16T16:40:04.334Z,1.60
2023-03-16T16:42:35.881Z,2.70
2023-03-16T16:45:08.189Z,1.50
2023-03-16T16:47:39.301Z,3.10
2023-03-16T16:50:18.475Z,4.10
2023-03-16T16:52:49.734Z,7.30
2023-03-16T16:55:21.466Z,7.80
2023-03-16T16:57:56.098Z,9.70
2023-03-16T17:00:29.374Z,7.70
2023-03-16T17:03:03.943Z,6.40
2023-03-16T17:05:35.037Z,9.50
2023-03-16T17:08:06.618Z,6.20
2023-03-16T17:10:37.906Z,4.80
2023-03-16T17:13:19.372Z,4.80
2023-03-16T17:15:50.452Z,4.50
2023-03-16T17:18:22.161Z,4.90
2023-03-16T17:20:53.458Z,3.00
2023-03-16T17:23:31.394Z,7.50
2023-03-16T17:26:05.113Z,4.70
2023-03-16T17:31:09.888Z,5.70
2023-03-16T17:33:40.996Z,7.20
2023-03-16T17:36:15.047Z,3.70
2023-03-16T17:38:46.400Z,3.70
2023-03-16T17:41:25.882Z,4.70
2023-03-16T17:43:59.096Z,2.50
2023-03-16T17:46:32.632Z,3.30
2023-03-16T17:49:03.476Z,4.30
2023-03-16T17:51:34.719Z,3.60
2023-03-16T17:54:05.918Z,4.40
2023-03-16T17:56:37.535Z,4.70
2023-03-16T17:59:15.446Z,2.90
2023-03-16T18:01:47.388Z,2.70
2023-03-16T18:04:22.484Z,3.10
2023-03-16T18:06:54.416Z,4.40
2023-03-16T18:09:25.993Z,2.80
2023-03-16T18:11:57.413Z,4.20
2023-03-16T18:14:36.293Z,5.20
2023-03-16T18:17:22.882Z,4.80
2023-03-16T18:19:54.062Z,4.40
2023-03-16T18:22:26.625Z,5.30
2023-03-16T18:24:57.926Z,5.40
2023-03-16T18:27:28.828Z,2.70
2023-03-16T18:30:00.274Z,4.80
2023-03-16T18:32:33.274Z,6.40
2023-03-16T18:35:04.458Z,2.40
2023-03-16T18:37:35.353Z,2.80
2023-03-16T18:40:08.214Z,5.00
2023-03-16T18:42:39.183Z,2.30
2023-03-16T18:45:13.316Z,2.80
2023-03-16T18:47:51.143Z,3.10
2023-03-16T18:50:28.187Z,3.30
2023-03-16T18:52:59.438Z,2.30
2023-03-16T18:55:31.193Z,2.40
2023-03-16T18:58:02.568Z,2.50
2023-03-16T19:00:34.734Z,3.10
2023-03-16T19:03:09.323Z,3.40
2023-03-16T19:05:40.848Z,6.70
2023-03-16T19:08:15.971Z,2.60
2023-03-16T19:10:50.449Z,4.20
2023-03-16T19:13:22.816Z,3.10
2023-03-16T19:15:55.283Z,2.10
2023-03-16T19:18:29.421Z,4.00
2023-03-16T19:21:01.689Z,3.10
2023-03-16T19:23:36.878Z,3.70
2023-03-16T19:26:08.508Z,3.20
2023-03-16T19:28:41.005Z,3.10
2023-03-16T19:31:19.229Z,2.40
2023-03-16T19:33:52.047Z,3.10
2023-03-16T19:36:25.889Z,2.30
2023-03-16T19:38:57.770Z,3.20
2023-03-16T19:41:32.011Z,3.10
2023-03-16T19:44:10.045Z,3.70
2023-03-16T19:46:41.664Z,2.80
2023-03-16T19:49:18.407Z,2.60
2023-03-16T19:51:51.240Z,2.70
2023-03-16T19:54:26.113Z,2.80
2023-03-16T19:56:59.328Z,3.40
2023-03-16T19:59:34.518Z,2.50
2023-03-16T20:02:21.455Z,2.90
2023-03-16T20:04:53.422Z,4.70
2023-03-16T20:07:26.112Z,2.50
2023-03-16T20:09:57.519Z,5.90
2023-03-16T20:12:30.255Z,3.90
2023-03-16T20:15:02.049Z,3.60
2023-03-16T20:17:35.491Z,2.50
2023-03-16T20:20:18.503Z,1.90
2023-03-16T20:22:50.110Z,3.00
2023-03-16T20:25:22.575Z,5.00
2023-03-16T20:27:59.627Z,4.00
2023-03-16T20:30:31.895Z,3.00
2023-03-16T20:33:03.874Z,2.50
2023-03-16T20:35:35.082Z,2.80
2023-03-16T20:38:11.531Z,3.30
2023-03-16T20:40:43.298Z,3.20
2023-03-16T20:43:25.814Z,2.30
2023-03-16T20:45:59.111Z,2.20
2023-03-16T20:48:30.822Z,3.20
2023-03-16T20:51:01.821Z,3.50
2023-03-16T20:53:35.229Z,2.10
2023-03-16T20:56:06.987Z,2.70
2023-03-16T20:58:38.171Z,3.30
2023-03-16T21:01:17.646Z,4.10
2023-03-16T21:03:50.389Z,2.50
2023-03-16T21:06:27.306Z,3.10
2023-03-16T21:09:00.388Z,3.20
2023-03-16T21:11:36.858Z,2.70
2023-03-16T21:14:14.628Z,2.80
2023-03-16T21:16:45.677Z,2.90
2023-03-16T21:19:18.837Z,3.20
2023-03-16T21:21:49.885Z,3.70
2023-03-16T21:24:21.262Z,2.60
2023-03-16T21:26:52.522Z,4.00
2023-03-16T21:29:23.973Z,4.10
2023-03-16T21:31:54.866Z,4.10
2023-03-16T21:34:29.534Z,3.10
2023-03-16T21:37:00.581Z,3.20
2023-03-16T21:39:31.730Z,2.80
2023-03-16T21:42:02.571Z,3.60
2023-03-16T21:44:33.620Z,3.20
2023-03-16T21:47:04.421Z,2.90
2023-03-16T21:49:35.401Z,3.10
2023-03-16T21:52:11.125Z,2.20
2023-03-16T21:54:42.242Z,2.70
2023-03-16T21:57:16.651Z,2.90
2023-03-16T21:59:47.668Z,3.00
2023-03-16T22:02:23.637Z,3.10
2023-03-16T22:04:56.668Z,3.70
2023-03-16T22:07:27.648Z,2.60
2023-03-16T22:09:58.797Z,6.60
2023-03-16T22:12:29.710Z,3.90
2023-03-16T22:15:00.781Z,2.80
2023-03-16T22:17:33.436Z,4.70
2023-03-16T22:20:04.454Z,3.80
2023-03-16T22:22:35.989Z,3.60
2023-03-16T22:25:16.758Z,3.20
2023-03-16T22:27:48.124Z,5.30
2023-03-16T22:30:24.911Z,3.50
2023-03-16T22:32:59.071Z,5.00
2023-03-16T22:35:35.482Z,4.70
2023-03-16T22:38:08.991Z,3.70
2023-03-16T22:40:41.593Z,5.70
2023-03-16T22:43:18.932Z,3.80
2023-03-16T22:45:49.958Z,5.50
2023-03-16T22:48:25.062Z,4.50
2023-03-16T22:50:58.198Z,3.90
2023-03-16T22:53:35.910Z,4.60
2023-03-16T22:56:10.341Z,3.60
2023-03-16T22:58:43.527Z,3.80
2023-03-16T23:01:19.368Z,4.30
2023-03-16T23:03:51.828Z,4.10
2023-03-16T23:06:25.156Z,2.80
2023-03-16T23:08:57.477Z,3.30
2023-03-16T23:11:31.470Z,4.40
2023-03-16T23:14:02.900Z,3.10
2023-03-16T23:16:37.302Z,4.30
2023-03-16T23:19:24.783Z,3.80
2023-03-16T23:21:57.987Z,4.10
2023-03-16T23:24:29.264Z,3.50
2023-03-16T23:27:00.936Z,4.10
2023-03-16T23:29:32.227Z,3.50
2023-03-16T23:32:06.513Z,3.50
2023-03-16T23:34:37.379Z,4.10
2023-03-16T23:37:08.785Z,3.40
2023-03-16T23:39:40.013Z,3.40
2023-03-16T23:42:11.738Z,3.40
2023-03-16T23:44:43.984Z,3.20
2023-03-16T23:47:15.330Z,3.70
2023-03-16T23:49:46.619Z,3.60
2023-03-16T23:52:18.037Z,4.50
2023-03-16T23:54:50.222Z,5.40
2023-03-16T23:57:21.247Z,3.60
2023-03-16T23:59:52.495Z,4.00
